Etusivu
METAR-TAF:

METAR-TAF

Lentoasemat :

Indianapolis, Indiana, Yhdysvallat

Leveyspiiri: 39-50-37N, Pituuspiiri: 085-53-49W, korkeus merenpinnasta: 263 m

Tämänhetkinen sää

Tämä raportti tehtiin 21 tuntia ja 10 minuuttia sitten, kello 17.55 UTC
tyyntä
Lämpötila -2°C
Kosteus 46%
Ilmanpaine 1038 hPa
Näkyvyys: 16.1 km
selkeää

METAR: KMQJ 211755Z AUTO 00000KT 10SM CLR M02/M12 A3064 RMK AO1

Aika: 08:05 (15:05 UTC)


TAF: puuttuu

Säähavainnot ja -ennusteet yli 4000 lentoasemalta (METAR- ja TAF-raportit).

Käytössä olevat sääasemat on merkitty karttaan keltaisilla ja punaisilla pisteillä.

Aseta hiiri pisteen päälle nähdäksesi sääaseman nimen.

Klikkaa sitten nähdäksesi säähavainnot ja -ennusteet.

Kartan vaihtaminen: klikkaa mustalla rastilla varustettuja vihreitä pisteitä, niin voit zoomata sisään; viivalla varustettua vihreää pistettä, niin voit zoomata ulos tai vihreitä nuolia, niin pääset viereisille kartoille.


METAR-TAF: